DAL4187 KPWM-KBNA
Flight info
| Callsign | DAL4187 |
|---|---|
| Flight time | N/A |
| Altitude | 36000 |
| Route | HSKEL3 CAM ALB J49 PSB Q71 GEFFS HVQ Q68 YOCKY CUTRR PASLY5 |
| Aircraft | B738/M-SDE2E3FGHIRWXY/LB1 |
Departure
| Time | 2026-05-04 18:18 |
|---|---|
| Airport | Portland International Jetport (KPWM) |
Arrival
| Time | N/A |
|---|---|
| Airport | Nashville International Airport (KBNA) |
| Time | Latitude | Longitude | Altitude | Speed | Heading |
|---|---|---|---|---|---|
| 2026-05-04 17:43 | 43.64682 | -70.31119 | 65 ft | 0 kts | 5° |
| 2026-05-04 18:09 | 43.64656 | -70.31130 | 65 ft | 2 kts | 30° |
| 2026-05-04 18:09 | 43.64633 | -70.31158 | 65 ft | 2 kts | 56° |
| 2026-05-04 18:10 | 43.64625 | -70.31176 | 66 ft | 2 kts | 60° |
| 2026-05-04 18:10 | 43.64618 | -70.31193 | 66 ft | 1 kts | 59° |
| 2026-05-04 18:10 | 43.64617 | -70.31194 | 66 ft | 0 kts | 59° |
| 2026-05-04 18:13 | 43.64619 | -70.31191 | 66 ft | 1 kts | 59° |
| 2026-05-04 18:13 | 43.64592 | -70.31061 | 63 ft | 12 kts | 97° |
| 2026-05-04 18:14 | 43.64585 | -70.30938 | 61 ft | 13 kts | 95° |
| 2026-05-04 18:14 | 43.64575 | -70.30799 | 58 ft | 15 kts | 96° |
| 2026-05-04 18:14 | 43.64563 | -70.30633 | 52 ft | 18 kts | 96° |
| 2026-05-04 18:15 | 43.64585 | -70.30302 | 42 ft | 18 kts | 84° |
| 2026-05-04 18:15 | 43.64574 | -70.30002 | 33 ft | 4 kts | 95° |
| 2026-05-04 18:15 | 43.64561 | -70.29947 | 31 ft | 6 kts | 126° |
| 2026-05-04 18:16 | 43.64552 | -70.29934 | 30 ft | 3 kts | 146° |
| 2026-05-04 18:16 | 43.64528 | -70.29923 | 30 ft | 3 kts | 169° |
| 2026-05-04 18:16 | 43.64482 | -70.29915 | 31 ft | 10 kts | 181° |
| 2026-05-04 18:17 | 43.64412 | -70.30012 | 35 ft | 0 kts | 277° |
| 2026-05-04 18:17 | 43.64412 | -70.30013 | 35 ft | 0 kts | 277° |
| 2026-05-04 18:17 | 43.64419 | -70.30142 | 39 ft | 42 kts | 275° |
| 2026-05-04 18:18 | 43.64465 | -70.30878 | 59 ft | 109 kts | 276° |
| 2026-05-04 18:18 | 43.64557 | -70.32190 | 70 ft | 163 kts | 277° |
| 2026-05-04 18:18 | 43.64653 | -70.33736 | 785 ft | 160 kts | 267° |
| 2026-05-04 18:18 | 43.64600 | -70.35240 | 1593 ft | 162 kts | 264° |
| 2026-05-04 18:19 | 43.64829 | -70.38290 | 2861 ft | 177 kts | 284° |
| 2026-05-04 18:19 | 43.65138 | -70.40052 | 3041 ft | 202 kts | 276° |
| 2026-05-04 18:19 | 43.65287 | -70.42058 | 3001 ft | 214 kts | 272° |
| 2026-05-04 18:20 | 43.65405 | -70.44126 | 3027 ft | 221 kts | 273° |
| 2026-05-04 18:20 | 43.65548 | -70.46297 | 3096 ft | 233 kts | 274° |
| 2026-05-04 18:20 | 43.65738 | -70.48521 | 3434 ft | 234 kts | 278° |
| 2026-05-04 18:20 | 43.66135 | -70.50718 | 3742 ft | 236 kts | 283° |
| 2026-05-04 18:21 | 43.66503 | -70.52946 | 4391 ft | 243 kts | 270° |
| 2026-05-04 18:21 | 43.66153 | -70.55104 | 5584 ft | 233 kts | 249° |
| 2026-05-04 18:21 | 43.65440 | -70.57117 | 6356 ft | 240 kts | 247° |
| 2026-05-04 18:21 | 43.64753 | -70.59196 | 7168 ft | 244 kts | 251° |
| 2026-05-04 18:22 | 43.64144 | -70.61362 | 8020 ft | 245 kts | 253° |
| 2026-05-04 18:22 | 43.63567 | -70.63596 | 8836 ft | 248 kts | 254° |
| 2026-05-04 18:22 | 43.62996 | -70.65810 | 9644 ft | 250 kts | 253° |
| 2026-05-04 18:22 | 43.62405 | -70.68057 | 10454 ft | 254 kts | 253° |
| 2026-05-04 18:23 | 43.61795 | -70.70358 | 11191 ft | 259 kts | 253° |
| 2026-05-04 18:23 | 43.61172 | -70.72704 | 11892 ft | 264 kts | 253° |
| 2026-05-04 18:23 | 43.60546 | -70.75066 | 12655 ft | 266 kts | 253° |
| 2026-05-04 18:23 | 43.59909 | -70.77474 | 13357 ft | 271 kts | 254° |
| 2026-05-04 18:24 | 43.59264 | -70.79916 | 14073 ft | 274 kts | 254° |
| 2026-05-04 18:24 | 43.58610 | -70.82388 | 14743 ft | 278 kts | 254° |
| 2026-05-04 18:24 | 43.57947 | -70.84895 | 15277 ft | 287 kts | 254° |
| 2026-05-04 18:24 | 43.57242 | -70.87563 | 15671 ft | 301 kts | 254° |
| 2026-05-04 18:25 | 43.56515 | -70.90303 | 15992 ft | 316 kts | 253° |
| 2026-05-04 18:25 | 43.55746 | -70.93175 | 16619 ft | 321 kts | 253° |
| 2026-05-04 18:25 | 43.54967 | -70.96079 | 17268 ft | 326 kts | 253° |
| 2026-05-04 18:25 | 43.54176 | -70.99030 | 17926 ft | 329 kts | 254° |
| 2026-05-04 18:26 | 43.53394 | -71.01949 | 18608 ft | 332 kts | 254° |
| 2026-05-04 18:26 | 43.52588 | -71.04964 | 19192 ft | 337 kts | 254° |
| 2026-05-04 18:26 | 43.51772 | -71.08017 | 19799 ft | 341 kts | 254° |
| 2026-05-04 18:26 | 43.50945 | -71.11105 | 20434 ft | 344 kts | 254° |
| 2026-05-04 18:27 | 43.50122 | -71.14172 | 21036 ft | 348 kts | 255° |
| 2026-05-04 18:27 | 43.49283 | -71.17293 | 21748 ft | 348 kts | 255° |
| 2026-05-04 18:27 | 43.48448 | -71.20396 | 22549 ft | 344 kts | 255° |
| 2026-05-04 18:27 | 43.47617 | -71.23476 | 23270 ft | 343 kts | 255° |
| 2026-05-04 18:28 | 43.46794 | -71.26520 | 23929 ft | 343 kts | 256° |
| 2026-05-04 18:28 | 43.45966 | -71.29591 | 24566 ft | 343 kts | 256° |
| 2026-05-04 18:28 | 43.45137 | -71.32652 | 25210 ft | 342 kts | 255° |
| 2026-05-04 18:28 | 43.44312 | -71.35693 | 25836 ft | 340 kts | 256° |
| 2026-05-04 18:29 | 43.43486 | -71.38735 | 26428 ft | 339 kts | 256° |
| 2026-05-04 18:29 | 43.42667 | -71.41757 | 27028 ft | 337 kts | 256° |
| 2026-05-04 18:29 | 43.41853 | -71.44756 | 27573 ft | 335 kts | 256° |
| 2026-05-04 18:29 | 43.41038 | -71.47755 | 28042 ft | 336 kts | 256° |
| 2026-05-04 18:30 | 43.39388 | -71.53846 | 28536 ft | 348 kts | 256° |
| 2026-05-04 18:30 | 43.38530 | -71.57021 | 28732 ft | 356 kts | 257° |
| 2026-05-04 18:30 | 43.37661 | -71.60214 | 28885 ft | 364 kts | 256° |
| 2026-05-04 18:31 | 43.36769 | -71.63483 | 29083 ft | 371 kts | 256° |
| 2026-05-04 18:31 | 43.35852 | -71.66830 | 29218 ft | 380 kts | 255° |
| 2026-05-04 18:31 | 43.34916 | -71.70242 | 29421 ft | 386 kts | 255° |
| 2026-05-04 18:31 | 43.33948 | -71.73763 | 29601 ft | 394 kts | 255° |
| 2026-05-04 18:32 | 43.32974 | -71.77303 | 29690 ft | 404 kts | 255° |
| 2026-05-04 18:32 | 43.30951 | -71.84650 | 30123 ft | 416 kts | 255° |
| 2026-05-04 18:32 | 43.29934 | -71.88303 | 30764 ft | 412 kts | 255° |
| 2026-05-04 18:33 | 43.28907 | -71.91987 | 31306 ft | 410 kts | 256° |
| 2026-05-04 18:33 | 43.27901 | -71.95605 | 31807 ft | 408 kts | 255° |
| 2026-05-04 18:33 | 43.26895 | -71.99219 | 32211 ft | 407 kts | 255° |
| 2026-05-04 18:33 | 43.25885 | -72.02840 | 32642 ft | 406 kts | 255° |
| 2026-05-04 18:34 | 43.24890 | -72.06404 | 33072 ft | 404 kts | 255° |
| 2026-05-04 18:34 | 43.23880 | -72.10025 | 33424 ft | 404 kts | 255° |
| 2026-05-04 18:34 | 43.22884 | -72.13593 | 33712 ft | 403 kts | 255° |
| 2026-05-04 18:34 | 43.21890 | -72.17145 | 34004 ft | 403 kts | 255° |
| 2026-05-04 18:35 | 43.20887 | -72.20731 | 34315 ft | 402 kts | 255° |
| 2026-05-04 18:35 | 43.19885 | -72.24306 | 34591 ft | 402 kts | 255° |
| 2026-05-04 18:35 | 43.18895 | -72.27827 | 34862 ft | 401 kts | 254° |
| 2026-05-04 18:35 | 43.17888 | -72.31415 | 35064 ft | 402 kts | 254° |
| 2026-05-04 18:36 | 43.16893 | -72.34953 | 35304 ft | 401 kts | 254° |
| 2026-05-04 18:36 | 43.15888 | -72.38521 | 35541 ft | 400 kts | 254° |
| 2026-05-04 18:36 | 43.14893 | -72.42041 | 35743 ft | 400 kts | 254° |
| 2026-05-04 18:37 | 43.12872 | -72.49188 | 35809 ft | 403 kts | 254° |
| 2026-05-04 18:37 | 43.11011 | -72.55733 | 35821 ft | 399 kts | 254° |
| 2026-05-04 18:38 | 43.08977 | -72.62877 | 35836 ft | 399 kts | 254° |
| 2026-05-04 18:38 | 43.06968 | -72.69913 | 35832 ft | 401 kts | 253° |
| 2026-05-04 18:39 | 43.04953 | -72.76957 | 35842 ft | 399 kts | 254° |
| 2026-05-04 18:39 | 43.02937 | -72.84000 | 35835 ft | 399 kts | 254° |
| 2026-05-04 18:40 | 43.00912 | -72.91040 | 35846 ft | 400 kts | 253° |
| 2026-05-04 18:40 | 42.98914 | -72.97957 | 35849 ft | 401 kts | 254° |
| 2026-05-04 18:41 | 42.96862 | -73.05040 | 35838 ft | 401 kts | 254° |
| 2026-05-04 18:41 | 42.94815 | -73.12102 | 35845 ft | 402 kts | 254° |
| 2026-05-04 18:42 | 42.92754 | -73.19178 | 35854 ft | 400 kts | 254° |
| 2026-05-04 18:42 | 42.90698 | -73.26215 | 35850 ft | 401 kts | 254° |
| 2026-05-04 18:43 | 42.88632 | -73.33272 | 35842 ft | 403 kts | 254° |
| 2026-05-04 18:43 | 42.86552 | -73.40349 | 35837 ft | 400 kts | 254° |
| 2026-05-04 18:44 | 42.84492 | -73.47362 | 35840 ft | 403 kts | 255° |
| 2026-05-04 18:44 | 42.82410 | -73.54433 | 35832 ft | 403 kts | 254° |
| 2026-05-04 18:45 | 42.80317 | -73.61489 | 35834 ft | 401 kts | 254° |
| 2026-05-04 18:45 | 42.78225 | -73.68538 | 35828 ft | 404 kts | 253° |
| 2026-05-04 18:46 | 42.76121 | -73.75597 | 35836 ft | 403 kts | 254° |
| 2026-05-04 18:46 | 42.73804 | -73.82547 | 35829 ft | 409 kts | 248° |
| 2026-05-04 18:47 | 42.70924 | -73.89244 | 35836 ft | 418 kts | 245° |
| 2026-05-04 18:47 | 42.67881 | -73.95960 | 35836 ft | 416 kts | 245° |
| 2026-05-04 18:48 | 42.64873 | -74.02636 | 35835 ft | 416 kts | 245° |
| 2026-05-04 18:48 | 42.61876 | -74.09330 | 35836 ft | 415 kts | 245° |
| 2026-05-04 18:49 | 42.59000 | -74.15764 | 35839 ft | 416 kts | 245° |
| 2026-05-04 18:49 | 42.55968 | -74.22533 | 35844 ft | 415 kts | 245° |
| 2026-05-04 18:50 | 42.52984 | -74.29192 | 35844 ft | 414 kts | 245° |
| 2026-05-04 18:50 | 42.49988 | -74.35881 | 35850 ft | 418 kts | 245° |
| 2026-05-04 18:51 | 42.46972 | -74.42596 | 35856 ft | 416 kts | 245° |
| 2026-05-04 18:51 | 42.43986 | -74.49219 | 35846 ft | 417 kts | 245° |
| 2026-05-04 18:52 | 42.40974 | -74.55891 | 35854 ft | 416 kts | 245° |
| 2026-05-04 18:52 | 42.37950 | -74.62571 | 35852 ft | 414 kts | 245° |
| 2026-05-04 18:53 | 42.34928 | -74.69241 | 35846 ft | 419 kts | 245° |
| 2026-05-04 18:53 | 42.31914 | -74.75875 | 35846 ft | 416 kts | 245° |
| 2026-05-04 18:54 | 42.28880 | -74.82510 | 35844 ft | 416 kts | 245° |
| 2026-05-04 18:54 | 42.25852 | -74.89136 | 35852 ft | 416 kts | 245° |
| 2026-05-04 18:55 | 42.22818 | -74.95778 | 35861 ft | 416 kts | 245° |
| 2026-05-04 18:55 | 42.18246 | -75.05741 | 35852 ft | 418 kts | 245° |
| 2026-05-04 18:56 | 42.15200 | -75.12358 | 35853 ft | 418 kts | 245° |
| 2026-05-04 18:56 | 42.12139 | -75.18987 | 35854 ft | 418 kts | 245° |